sensor_id;sensor_type;location;lat;lon;timestamp;pressure;altitude;pressure_sealevel;temperature;humidity
55410;BME280;41279;43.546;16.426;2022-10-16T00:02:19;56867.34;;;-146.77;92.88
55410;BME280;41279;43.546;16.426;2022-10-16T00:04:45;56873.34;;;-146.77;94.69
55410;BME280;41279;43.546;16.426;2022-10-16T00:07:10;57166.00;;;-146.77;100.00
55410;BME280;41279;43.546;16.426;2022-10-16T00:09:35;57851.56;;;-146.77;100.00
55410;BME280;41279;43.546;16.426;2022-10-16T00:12:01;57322.34;;;-146.77;97.20
55410;BME280;41279;43.546;16.426;2022-10-16T00:14:26;56829.25;;;-146.77;97.73
55410;BME280;41279;43.546;16.426;2022-10-16T00:16:51;57021.69;;;-146.77;95.50
55410;BME280;41279;43.546;16.426;2022-10-16T00:19:17;57510.78;;;-146.77;100.00
55410;BME280;41279;43.546;16.426;2022-10-16T00:21:42;57328.34;;;-146.77;100.00
55410;BME280;41279;43.546;16.426;2022-10-16T00:24:09;57839.53;;;-146.77;100.00
55410;BME280;41279;43.546;16.426;2022-10-16T00:26:36;57234.16;;;-146.77;98.88
55410;BME280;41279;43.546;16.426;2022-10-16T00:29:02;56897.41;;;-146.77;94.27
55410;BME280;41279;43.546;16.426;2022-10-16T00:31:28;55855.31;;;-146.77;86.81
55410;BME280;41279;43.546;16.426;2022-10-16T00:33:54;55590.81;;;-146.77;84.92
55410;BME280;41279;43.546;16.426;2022-10-16T00:36:21;55927.44;;;-146.77;88.63
55410;BME280;41279;43.546;16.426;2022-10-16T00:38:50;55959.50;;;-146.77;88.29
55410;BME280;41279;43.546;16.426;2022-10-16T00:41:19;56436.44;;;-146.77;95.73
55410;BME280;41279;43.546;16.426;2022-10-16T00:43:50;56586.75;;;-146.77;95.34
55410;BME280;41279;43.546;16.426;2022-10-16T00:46:31;57603.00;;;-146.77;100.00
55410;BME280;41279;43.546;16.426;2022-10-16T00:49:04;56532.66;;;-146.77;88.63
55410;BME280;41279;43.546;16.426;2022-10-16T00:51:37;56506.59;;;-146.77;91.92
55410;BME280;41279;43.546;16.426;2022-10-16T00:54:06;56368.31;;;-146.77;92.82
55410;BME280;41279;43.546;16.426;2022-10-16T00:56:33;55781.16;;;-146.77;88.16
55410;BME280;41279;43.546;16.426;2022-10-16T00:59:02;56252.06;;;-146.77;90.38
55410;BME280;41279;43.546;16.426;2022-10-16T01:01:29;55863.31;;;-146.77;86.00
55410;BME280;41279;43.546;16.426;2022-10-16T01:03:54;56526.63;;;-146.77;92.83
55410;BME280;41279;43.546;16.426;2022-10-16T01:06:26;56540.66;;;-146.77;94.08
55410;BME280;41279;43.546;16.426;2022-10-16T01:09:05;56270.13;;;-146.77;90.76
55410;BME280;41279;43.546;16.426;2022-10-16T01:11:38;56737.06;;;-146.77;95.56
55410;BME280;41279;43.546;16.426;2022-10-16T01:14:15;57159.97;;;-146.77;98.78
55410;BME280;41279;43.546;16.426;2022-10-16T01:19:25;57482.72;;;-146.77;99.84
55410;BME280;41279;43.546;16.426;2022-10-16T01:21:57;56634.84;;;-146.77;93.05
55410;BME280;41279;43.546;16.426;2022-10-16T01:24:39;56997.63;;;-146.77;98.53
55410;BME280;41279;43.546;16.426;2022-10-16T01:27:14;56849.31;;;-146.77;93.13
55410;BME280;41279;43.546;16.426;2022-10-16T01:29:52;56881.38;;;-146.77;98.55
55410;BME280;41279;43.546;16.426;2022-10-16T01:34:58;56027.63;;;-146.77;86.34
55410;BME280;41279;43.546;16.426;2022-10-16T01:37:39;55538.72;;;-146.77;82.86
55410;BME280;41279;43.546;16.426;2022-10-16T01:40:09;55518.69;;;-146.77;83.82
55410;BME280;41279;43.546;16.426;2022-10-16T01:42:41;55917.44;;;-146.77;88.46
55410;BME280;41279;43.546;16.426;2022-10-16T01:45:09;55636.91;;;-146.77;87.36
55410;BME280;41279;43.546;16.426;2022-10-16T01:47:38;55787.19;;;-146.77;86.65
55410;BME280;41279;43.546;16.426;2022-10-16T01:50:05;55733.09;;;-146.77;87.22
55410;BME280;41279;43.546;16.426;2022-10-16T01:52:34;56300.19;;;-146.77;95.92
55410;BME280;41279;43.546;16.426;2022-10-16T01:55:04;56228.03;;;-146.77;93.98
55410;BME280;41279;43.546;16.426;2022-10-16T01:57:32;56833.28;;;-146.77;99.14
55410;BME280;41279;43.546;16.426;2022-10-16T02:00:03;56957.53;;;-146.77;100.00
55410;BME280;41279;43.546;16.426;2022-10-16T02:02:35;57911.72;;;-146.77;100.00
55410;BME280;41279;43.546;16.426;2022-10-16T02:05:28;56795.19;;;-146.77;95.57
55410;BME280;41279;43.546;16.426;2022-10-16T02:07:55;56456.50;;;-146.77;91.96
55410;BME280;41279;43.546;16.426;2022-10-16T02:10:23;56143.88;;;-146.77;91.02
55410;BME280;41279;43.546;16.426;2022-10-16T02:13:09;56129.84;;;-146.77;91.82
55410;BME280;41279;43.546;16.426;2022-10-16T02:15:35;56292.16;;;-146.77;93.09
55410;BME280;41279;43.546;16.426;2022-10-16T02:18:06;56099.78;;;-146.77;89.32
55410;BME280;41279;43.546;16.426;2022-10-16T02:20:40;56119.81;;;-146.77;89.45
55410;BME280;41279;43.546;16.426;2022-10-16T02:23:12;56212.00;;;-146.77;91.81
55410;BME280;41279;43.546;16.426;2022-10-16T02:25:44;55775.16;;;-146.77;88.52
55410;BME280;41279;43.546;16.426;2022-10-16T02:28:18;55666.97;;;-146.77;88.50
55410;BME280;41279;43.546;16.426;2022-10-16T02:33:22;55827.25;;;-146.77;88.93
55410;BME280;41279;43.546;16.426;2022-10-16T02:35:50;55711.03;;;-146.77;87.35
55410;BME280;41279;43.546;16.426;2022-10-16T02:38:17;55831.25;;;-146.77;88.58
55410;BME280;41279;43.546;16.426;2022-10-16T02:40:43;56680.94;;;-146.77;98.28
55410;BME280;41279;43.546;16.426;2022-10-16T02:43:09;59339.41;;;-146.77;100.00
55410;BME280;41279;43.546;16.426;2022-10-16T02:45:34;58593.41;;;-146.77;100.00
55410;BME280;41279;43.546;16.426;2022-10-16T02:48:00;57787.41;;;-146.77;100.00
55410;BME280;41279;43.546;16.426;2022-10-16T02:50:25;57615.00;;;-146.77;100.00
55410;BME280;41279;43.546;16.426;2022-10-16T02:52:51;56680.94;;;-146.77;93.48
55410;BME280;41279;43.546;16.426;2022-10-16T02:55:16;56352.28;;;-146.77;92.31
55410;BME280;41279;43.546;16.426;2022-10-16T02:57:42;56155.88;;;-146.77;93.11
55410;BME280;41279;43.546;16.426;2022-10-16T03:00:09;56121.81;;;-146.77;94.18
55410;BME280;41279;43.546;16.426;2022-10-16T03:02:36;56216.00;;;-146.77;93.35
55410;BME280;41279;43.546;16.426;2022-10-16T03:05:02;56045.69;;;-146.77;92.13
55410;BME280;41279;43.546;16.426;2022-10-16T03:07:27;56107.78;;;-146.77;93.38
55410;BME280;41279;43.546;16.426;2022-10-16T03:09:53;55865.34;;;-146.77;88.15
55410;BME280;41279;43.546;16.426;2022-10-16T03:12:19;55348.38;;;-146.77;88.66
55410;BME280;41279;43.546;16.426;2022-10-16T03:14:45;56640.88;;;-146.77;97.38
55410;BME280;41279;43.546;16.426;2022-10-16T03:17:10;56891.41;;;-146.77;100.00
55410;BME280;41279;43.546;16.426;2022-10-16T03:19:35;57330.38;;;-146.77;100.00
55410;BME280;41279;43.546;16.426;2022-10-16T03:22:01;58795.94;;;-146.77;100.00
55410;BME280;41279;43.546;16.426;2022-10-16T03:24:26;57851.56;;;-146.77;100.00
55410;BME280;41279;43.546;16.426;2022-10-16T03:26:52;57592.97;;;-146.77;100.00
55410;BME280;41279;43.546;16.426;2022-10-16T03:29:17;59068.66;;;-146.77;100.00
55410;BME280;41279;43.546;16.426;2022-10-16T03:31:42;57607.00;;;-146.77;100.00
55410;BME280;41279;43.546;16.426;2022-10-16T03:34:08;57039.72;;;-146.77;100.00
55410;BME280;41279;43.546;16.426;2022-10-16T03:36:33;56672.94;;;-146.77;100.00
55410;BME280;41279;43.546;16.426;2022-10-16T03:38:58;57927.75;;;-146.77;100.00
55410;BME280;41279;43.546;16.426;2022-10-16T03:41:24;56867.34;;;-146.77;98.46
55410;BME280;41279;43.546;16.426;2022-10-16T03:43:49;57069.78;;;-146.77;98.08
55410;BME280;41279;43.546;16.426;2022-10-16T03:46:14;55859.31;;;-146.77;88.15
55410;BME280;41279;43.546;16.426;2022-10-16T03:48:40;56558.69;;;-146.77;96.31
55410;BME280;41279;43.546;16.426;2022-10-16T03:51:05;56390.34;;;-146.77;97.60
55410;BME280;41279;43.546;16.426;2022-10-16T03:53:31;56280.13;;;-146.77;94.95
55410;BME280;41279;43.546;16.426;2022-10-16T03:55:56;56608.81;;;-146.77;98.52
55410;BME280;41279;43.546;16.426;2022-10-16T03:58:22;56548.69;;;-146.77;98.17
55410;BME280;41279;43.546;16.426;2022-10-16T04:00:47;57707.22;;;-146.77;100.00
55410;BME280;41279;43.546;16.426;2022-10-16T04:03:13;56582.75;;;-146.77;97.35
55410;BME280;41279;43.546;16.426;2022-10-16T04:05:39;56129.84;;;-146.77;91.79
55410;BME280;41279;43.546;16.426;2022-10-16T04:08:05;55891.38;;;-146.77;88.86
55410;BME280;41279;43.546;16.426;2022-10-16T04:10:30;55729.06;;;-146.77;91.07
55410;BME280;41279;43.546;16.426;2022-10-16T04:12:56;55837.28;;;-146.77;91.26
55410;BME280;41279;43.546;16.426;2022-10-16T04:15:22;55404.50;;;-146.77;86.08
55410;BME280;41279;43.546;16.426;2022-10-16T04:17:48;55937.47;;;-146.77;90.73
55410;BME280;41279;43.546;16.426;2022-10-16T04:20:13;56386.34;;;-146.77;96.01
55410;BME280;41279;43.546;16.426;2022-10-16T04:22:39;56095.78;;;-146.77;93.38
55410;BME280;41279;43.546;16.426;2022-10-16T04:25:04;56444.47;;;-146.77;95.39
55410;BME280;41279;43.546;16.426;2022-10-16T04:27:30;56280.13;;;-146.77;92.34
55410;BME280;41279;43.546;16.426;2022-10-16T04:29:57;56119.81;;;-146.77;95.30
55410;BME280;41279;43.546;16.426;2022-10-16T04:32:22;56638.88;;;-146.77;96.53
55410;BME280;41279;43.546;16.426;2022-10-16T04:34:47;56400.38;;;-146.77;96.60
55410;BME280;41279;43.546;16.426;2022-10-16T04:37:13;56737.06;;;-146.77;95.95
55410;BME280;41279;43.546;16.426;2022-10-16T04:39:38;56566.72;;;-146.77;99.88
55410;BME280;41279;43.546;16.426;2022-10-16T04:42:04;57260.22;;;-146.77;100.00
55410;BME280;41279;43.546;16.426;2022-10-16T04:44:29;57218.13;;;-146.77;100.00
55410;BME280;41279;43.546;16.426;2022-10-16T04:46:54;57613.00;;;-146.77;100.00
55410;BME280;41279;43.546;16.426;2022-10-16T04:49:20;56488.56;;;-146.77;93.53
55410;BME280;41279;43.546;16.426;2022-10-16T04:51:45;56526.63;;;-146.77;95.29
55410;BME280;41279;43.546;16.426;2022-10-16T04:54:11;56316.22;;;-146.77;92.39
55410;BME280;41279;43.546;16.426;2022-10-16T04:56:36;55821.25;;;-146.77;90.09
55410;BME280;41279;43.546;16.426;2022-10-16T04:59:08;55592.81;;;-146.77;88.47
55410;BME280;41279;43.546;16.426;2022-10-16T05:01:34;55797.19;;;-146.77;92.66
55410;BME280;41279;43.546;16.426;2022-10-16T05:03:59;55807.22;;;-146.77;92.76
55410;BME280;41279;43.546;16.426;2022-10-16T05:06:25;56019.63;;;-146.77;93.05
55410;BME280;41279;43.546;16.426;2022-10-16T05:08:50;55963.53;;;-146.77;93.18
55410;BME280;41279;43.546;16.426;2022-10-16T05:11:16;55881.38;;;-146.77;90.74
55410;BME280;41279;43.546;16.426;2022-10-16T05:13:41;55662.94;;;-146.77;91.67
55410;BME280;41279;43.546;16.426;2022-10-16T05:16:06;55907.41;;;-146.77;94.48
55410;BME280;41279;43.546;16.426;2022-10-16T05:18:32;56256.09;;;-146.77;99.10
55410;BME280;41279;43.546;16.426;2022-10-16T05:20:57;57915.72;;;-146.77;100.00
55410;BME280;41279;43.546;16.426;2022-10-16T05:23:22;57506.75;;;-146.77;100.00
55410;BME280;41279;43.546;16.426;2022-10-16T05:25:55;57079.81;;;-146.77;100.00
55410;BME280;41279;43.546;16.426;2022-10-16T05:28:24;57783.41;;;-146.77;100.00
55410;BME280;41279;43.546;16.426;2022-10-16T05:30:49;57859.59;;;-146.77;100.00
55410;BME280;41279;43.546;16.426;2022-10-16T05:33:15;58076.13;;;-146.77;100.00
55410;BME280;41279;43.546;16.426;2022-10-16T05:35:40;56801.22;;;-146.77;100.00
55410;BME280;41279;43.546;16.426;2022-10-16T05:38:06;56632.84;;;-146.77;100.00
55410;BME280;41279;43.546;16.426;2022-10-16T05:40:31;56839.28;;;-146.77;99.16
55410;BME280;41279;43.546;16.426;2022-10-16T05:42:56;55378.44;;;-146.77;82.97
55410;BME280;41279;43.546;16.426;2022-10-16T05:45:22;55077.91;;;-146.77;79.69
55410;BME280;41279;43.546;16.426;2022-10-16T05:47:47;55077.91;;;-146.77;81.71
55410;BME280;41279;43.546;16.426;2022-10-16T05:50:13;55534.72;;;-146.77;93.82
55410;BME280;41279;43.546;16.426;2022-10-16T05:52:39;55795.19;;;-146.77;93.67
55410;BME280;41279;43.546;16.426;2022-10-16T05:55:04;55109.97;;;-146.77;85.97
55410;BME280;41279;43.546;16.426;2022-10-16T05:57:30;54925.66;;;-146.77;83.45
55410;BME280;41279;43.546;16.426;2022-10-16T05:59:56;54981.75;;;-146.77;81.30
55410;BME280;41279;43.546;16.426;2022-10-16T06:02:21;54875.59;;;-146.77;76.73
55410;BME280;41279;43.546;16.426;2022-10-16T06:04:46;54927.66;;;-146.77;79.87
55410;BME280;41279;43.546;16.426;2022-10-16T06:07:12;54765.41;;;-146.77;74.20
55410;BME280;41279;43.546;16.426;2022-10-16T06:09:37;54567.09;;;-146.77;76.38
55410;BME280;41279;43.546;16.426;2022-10-16T06:12:02;54557.06;;;-146.77;75.99
55410;BME280;41279;43.546;16.426;2022-10-16T06:14:28;54983.75;;;-146.77;78.43
55410;BME280;41279;43.546;16.426;2022-10-16T06:16:53;54765.41;;;-146.77;74.90
55410;BME280;41279;43.546;16.426;2022-10-16T06:19:19;54777.44;;;-146.77;72.97
55410;BME280;41279;43.546;16.426;2022-10-16T06:21:44;54687.28;;;-146.77;73.71
55410;BME280;41279;43.546;16.426;2022-10-16T06:24:10;54677.25;;;-146.77;73.15
55410;BME280;41279;43.546;16.426;2022-10-16T06:26:36;54917.66;;;-146.77;73.06
55410;BME280;41279;43.546;16.426;2022-10-16T06:29:02;55033.84;;;-146.77;77.86
55410;BME280;41279;43.546;16.426;2022-10-16T06:31:28;55089.94;;;-146.77;82.98
55410;BME280;41279;43.546;16.426;2022-10-16T06:33:56;55049.88;;;-146.77;79.49
55410;BME280;41279;43.546;16.426;2022-10-16T06:36:22;54775.41;;;-146.77;77.89
55410;BME280;41279;43.546;16.426;2022-10-16T06:38:48;54909.66;;;-146.77;78.15
55410;BME280;41279;43.546;16.426;2022-10-16T06:41:18;54821.50;;;-146.77;75.03
55410;BME280;41279;43.546;16.426;2022-10-16T06:43:44;54641.22;;;-146.77;73.01
55410;BME280;41279;43.546;16.426;2022-10-16T06:46:11;54517.00;;;-146.77;69.78
55410;BME280;41279;43.546;16.426;2022-10-16T06:48:37;54404.84;;;-146.77;70.64
55410;BME280;41279;43.546;16.426;2022-10-16T06:53:38;54366.78;;;-146.77;75.79
55410;BME280;41279;43.546;16.426;2022-10-16T06:56:11;54350.75;;;-146.77;74.60
55410;BME280;41279;43.546;16.426;2022-10-16T06:58:37;54032.28;;;-146.77;76.52
55410;BME280;41279;43.546;16.426;2022-10-16T07:01:04;54238.59;;;-146.77;72.38
55410;BME280;41279;43.546;16.426;2022-10-16T07:03:29;54144.47;;;-146.77;71.79
55410;BME280;41279;43.546;16.426;2022-10-16T07:06:02;54358.78;;;-146.77;75.35
55410;BME280;41279;43.546;16.426;2022-10-16T07:08:31;54192.53;;;-146.77;72.58
55410;BME280;41279;43.546;16.426;2022-10-16T07:11:05;54200.53;;;-146.77;77.02
55410;BME280;41279;43.546;16.426;2022-10-16T07:13:33;54535.03;;;-146.77;75.57
55410;BME280;41279;43.546;16.426;2022-10-16T07:16:05;54410.84;;;-146.77;78.10
55410;BME280;41279;43.546;16.426;2022-10-16T07:18:30;54324.72;;;-146.77;78.69
55410;BME280;41279;43.546;16.426;2022-10-16T07:21:03;54547.06;;;-146.77;75.87
55410;BME280;41279;43.546;16.426;2022-10-16T07:23:29;54332.72;;;-146.77;69.46
55410;BME280;41279;43.546;16.426;2022-10-16T07:25:54;54334.75;;;-146.77;73.04
55410;BME280;41279;43.546;16.426;2022-10-16T07:28:20;54288.66;;;-146.77;70.89
55410;BME280;41279;43.546;16.426;2022-10-16T07:30:46;54561.09;;;-146.77;67.07
55410;BME280;41279;43.546;16.426;2022-10-16T07:33:11;54318.72;;;-146.77;67.19
55410;BME280;41279;43.546;16.426;2022-10-16T07:35:36;54396.84;;;-146.77;68.04
55410;BME280;41279;43.546;16.426;2022-10-16T07:38:02;54282.66;;;-146.77;67.96
55410;BME280;41279;43.546;16.426;2022-10-16T07:40:27;54350.75;;;-146.77;69.35
55410;BME280;41279;43.546;16.426;2022-10-16T07:42:53;54324.72;;;-146.77;67.76
55410;BME280;41279;43.546;16.426;2022-10-16T07:45:18;54637.19;;;-146.77;67.11
55410;BME280;41279;43.546;16.426;2022-10-16T07:47:43;54138.44;;;-146.77;69.11
55410;BME280;41279;43.546;16.426;2022-10-16T07:50:09;54114.41;;;-146.77;65.79
55410;BME280;41279;43.546;16.426;2022-10-16T07:52:34;54376.81;;;-146.77;63.28
55410;BME280;41279;43.546;16.426;2022-10-16T07:54:59;54080.38;;;-146.77;64.34
55410;BME280;41279;43.546;16.426;2022-10-16T07:57:25;54314.72;;;-146.77;64.15
55410;BME280;41279;43.546;16.426;2022-10-16T07:59:50;54362.78;;;-146.77;63.62
55410;BME280;41279;43.546;16.426;2022-10-16T08:02:22;54326.72;;;-146.77;62.70
55410;BME280;41279;43.546;16.426;2022-10-16T08:04:47;54392.81;;;-146.77;64.18
55410;BME280;41279;43.546;16.426;2022-10-16T08:07:19;54354.75;;;-146.77;63.11
55410;BME280;41279;43.546;16.426;2022-10-16T08:09:51;54104.41;;;-146.77;66.45
55410;BME280;41279;43.546;16.426;2022-10-16T08:12:17;54232.59;;;-146.77;62.37
55410;BME280;41279;43.546;16.426;2022-10-16T08:14:42;54482.97;;;-146.77;60.66
55410;BME280;41279;43.546;16.426;2022-10-16T08:17:08;54072.34;;;-146.77;64.13
55410;BME280;41279;43.546;16.426;2022-10-16T08:19:33;54402.84;;;-146.77;63.48
55410;BME280;41279;43.546;16.426;2022-10-16T08:22:00;54152.47;;;-146.77;62.71
55410;BME280;41279;43.546;16.426;2022-10-16T08:24:25;54182.50;;;-146.77;65.74
55410;BME280;41279;43.546;16.426;2022-10-16T08:26:53;53880.09;;;-146.77;64.45
55410;BME280;41279;43.546;16.426;2022-10-16T08:29:19;54174.50;;;-146.77;64.69
55410;BME280;41279;43.546;16.426;2022-10-16T08:31:44;54096.38;;;-146.77;69.86
55410;BME280;41279;43.546;16.426;2022-10-16T08:34:10;54216.56;;;-146.77;67.45
55410;BME280;41279;43.546;16.426;2022-10-16T08:36:35;53968.19;;;-146.77;66.36
55410;BME280;41279;43.546;16.426;2022-10-16T08:39:00;54126.44;;;-146.77;62.51
55410;BME280;41279;43.546;16.426;2022-10-16T08:47:49;54048.31;;;-146.77;63.32
55410;BME280;41279;43.546;16.426;2022-10-16T08:50:23;54198.53;;;-146.77;60.14
55410;BME280;41279;43.546;16.426;2022-10-16T08:52:50;54244.59;;;-146.77;59.01
55410;BME280;41279;43.546;16.426;2022-10-16T08:55:37;54344.75;;;-146.77;58.07
55410;BME280;41279;43.546;16.426;2022-10-16T08:58:12;54276.66;;;-146.77;56.89
55410;BME280;41279;43.546;16.426;2022-10-16T09:00:38;54176.50;;;-146.77;57.04
55410;BME280;41279;43.546;16.426;2022-10-16T09:03:24;54232.59;;;-146.77;56.92
55410;BME280;41279;43.546;16.426;2022-10-16T09:13:48;54284.66;;;-146.77;53.85
55410;BME280;41279;43.546;16.426;2022-10-16T09:16:19;54212.56;;;-146.77;55.72
55410;BME280;41279;43.546;16.426;2022-10-16T09:19:51;53942.16;;;-146.77;60.41
55410;BME280;41279;43.546;16.426;2022-10-16T09:21:50;53944.16;;;-146.77;63.20
55410;BME280;41279;43.546;16.426;2022-10-16T09:24:18;54130.44;;;-146.77;64.29
55410;BME280;41279;43.546;16.426;2022-10-16T09:26:45;54438.91;;;-146.77;70.90
55410;BME280;41279;43.546;16.426;2022-10-16T09:29:15;54320.72;;;-146.77;70.72
55410;BME280;41279;43.546;16.426;2022-10-16T09:31:41;54406.84;;;-146.77;69.30
55410;BME280;41279;43.546;16.426;2022-10-16T09:36:53;54817.50;;;-146.77;73.01
55410;BME280;41279;43.546;16.426;2022-10-16T09:39:19;54759.41;;;-146.77;72.13
55410;BME280;41279;43.546;16.426;2022-10-16T09:41:45;54699.31;;;-146.77;70.58
55410;BME280;41279;43.546;16.426;2022-10-16T09:44:24;55081.94;;;-146.77;75.52
55410;BME280;41279;43.546;16.426;2022-10-16T09:47:15;54969.75;;;-146.77;75.66
55410;BME280;41279;43.546;16.426;2022-10-16T09:50:00;55134.03;;;-146.77;75.53
55410;BME280;41279;43.546;16.426;2022-10-16T09:52:28;55418.50;;;-146.77;78.13
55410;BME280;41279;43.546;16.426;2022-10-16T09:54:56;55703.03;;;-146.77;79.39
55410;BME280;41279;43.546;16.426;2022-10-16T09:57:23;55430.53;;;-146.77;76.24
55410;BME280;41279;43.546;16.426;2022-10-16T09:59:50;55432.53;;;-146.77;77.51
55410;BME280;41279;43.546;16.426;2022-10-16T10:02:19;55262.25;;;-146.77;75.81
55410;BME280;41279;43.546;16.426;2022-10-16T10:04:50;55408.50;;;-146.77;77.48
55410;BME280;41279;43.546;16.426;2022-10-16T10:07:18;55320.34;;;-146.77;74.66
55410;BME280;41279;43.546;16.426;2022-10-16T10:09:46;55494.66;;;-146.77;76.59
55410;BME280;41279;43.546;16.426;2022-10-16T10:12:21;55600.84;;;-146.77;74.52
55410;BME280;41279;43.546;16.426;2022-10-16T10:14:50;55737.09;;;-146.77;74.30
55410;BME280;41279;43.546;16.426;2022-10-16T10:17:27;55430.53;;;-146.77;75.65
55410;BME280;41279;43.546;16.426;2022-10-16T10:22:50;55128.00;;;-146.77;73.65
55410;BME280;41279;43.546;16.426;2022-10-16T10:33:40;54571.09;;;-146.77;69.14
55410;BME280;41279;43.546;16.426;2022-10-16T10:44:51;54873.59;;;-146.77;71.50
55410;BME280;41279;43.546;16.426;2022-10-16T10:53:09;55055.88;;;-146.77;70.19
55410;BME280;41279;43.546;16.426;2022-10-16T10:55:42;54661.25;;;-146.77;68.38
55410;BME280;41279;43.546;16.426;2022-10-16T11:06:20;54669.25;;;-146.77;67.48
55410;BME280;41279;43.546;16.426;2022-10-16T11:09:23;54877.59;;;-146.77;61.83
55410;BME280;41279;43.546;16.426;2022-10-16T11:12:05;54875.59;;;-146.77;59.10
55410;BME280;41279;43.546;16.426;2022-10-16T11:14:38;54569.09;;;-146.77;65.49
55410;BME280;41279;43.546;16.426;2022-10-16T11:22:36;54685.28;;;-146.77;63.62
55410;BME280;41279;43.546;16.426;2022-10-16T11:28:08;55210.16;;;-146.77;65.41
55410;BME280;41279;43.546;16.426;2022-10-16T11:31:05;55138.03;;;-146.77;66.37
55410;BME280;41279;43.546;16.426;2022-10-16T11:36:17;55111.97;;;-146.77;61.58
55410;BME280;41279;43.546;16.426;2022-10-16T11:39:03;54631.19;;;-146.77;57.70
55410;BME280;41279;43.546;16.426;2022-10-16T11:41:37;54354.75;;;-146.77;58.38
55410;BME280;41279;43.546;16.426;2022-10-16T11:49:55;54701.31;;;-146.77;68.51
55410;BME280;41279;43.546;16.426;2022-10-16T11:52:30;54693.28;;;-146.77;68.86
55410;BME280;41279;43.546;16.426;2022-10-16T11:55:08;54853.56;;;-146.77;64.51
55410;BME280;41279;43.546;16.426;2022-10-16T11:57:51;54897.63;;;-146.77;69.85
55410;BME280;41279;43.546;16.426;2022-10-16T12:00:22;55047.88;;;-146.77;69.43
55410;BME280;41279;43.546;16.426;2022-10-16T12:02:54;54629.19;;;-146.77;67.91
55410;BME280;41279;43.546;16.426;2022-10-16T12:05:28;54615.16;;;-146.77;69.31
55410;BME280;41279;43.546;16.426;2022-10-16T12:10:27;54919.66;;;-146.77;70.84
55410;BME280;41279;43.546;16.426;2022-10-16T12:12:53;54889.59;;;-146.77;62.27
55410;BME280;41279;43.546;16.426;2022-10-16T12:15:27;54967.75;;;-146.77;62.54
55410;BME280;41279;43.546;16.426;2022-10-16T12:17:54;54603.16;;;-146.77;64.34
55410;BME280;41279;43.546;16.426;2022-10-16T12:20:32;54757.41;;;-146.77;61.62
55410;BME280;41279;43.546;16.426;2022-10-16T12:23:03;54503.00;;;-146.77;64.53
55410;BME280;41279;43.546;16.426;2022-10-16T12:25:30;54484.97;;;-146.77;63.64
55410;BME280;41279;43.546;16.426;2022-10-16T12:28:02;54334.75;;;-146.77;64.68
55410;BME280;41279;43.546;16.426;2022-10-16T12:30:31;54527.03;;;-146.77;64.75
55410;BME280;41279;43.546;16.426;2022-10-16T12:33:00;54619.19;;;-146.77;62.01
55410;BME280;41279;43.546;16.426;2022-10-16T12:35:29;54396.84;;;-146.77;62.96
55410;BME280;41279;43.546;16.426;2022-10-16T12:38:06;54557.06;;;-146.77;62.32
55410;BME280;41279;43.546;16.426;2022-10-16T12:40:35;54649.22;;;-146.77;61.32
55410;BME280;41279;43.546;16.426;2022-10-16T12:43:23;54611.16;;;-146.77;62.10
55410;BME280;41279;43.546;16.426;2022-10-16T12:48:30;54753.38;;;-146.77;63.48
55410;BME280;41279;43.546;16.426;2022-10-16T12:50:56;54805.47;;;-146.77;64.60
55410;BME280;41279;43.546;16.426;2022-10-16T12:53:26;54683.28;;;-146.77;63.92
55410;BME280;41279;43.546;16.426;2022-10-16T12:56:22;55055.88;;;-146.77;66.44
55410;BME280;41279;43.546;16.426;2022-10-16T12:59:34;54821.50;;;-146.77;67.04
55410;BME280;41279;43.546;16.426;2022-10-16T13:05:14;54919.66;;;-146.77;67.59
55410;BME280;41279;43.546;16.426;2022-10-16T13:07:57;55069.91;;;-146.77;69.70
55410;BME280;41279;43.546;16.426;2022-10-16T13:22:22;55246.22;;;-146.77;71.41
55410;BME280;41279;43.546;16.426;2022-10-16T13:27:59;55236.19;;;-146.77;70.88
55410;BME280;41279;43.546;16.426;2022-10-16T13:30:27;55202.13;;;-146.77;70.39
55410;BME280;41279;43.546;16.426;2022-10-16T13:33:01;55390.47;;;-146.77;71.64
55410;BME280;41279;43.546;16.426;2022-10-16T13:35:28;55222.16;;;-146.77;70.68
55410;BME280;41279;43.546;16.426;2022-10-16T13:38:12;55302.31;;;-146.77;72.22
55410;BME280;41279;43.546;16.426;2022-10-16T13:43:38;55378.44;;;-146.77;70.89
55410;BME280;41279;43.546;16.426;2022-10-16T13:46:16;55292.28;;;-146.77;73.07
55410;BME280;41279;43.546;16.426;2022-10-16T13:48:42;55456.56;;;-146.77;72.71
55410;BME280;41279;43.546;16.426;2022-10-16T13:51:16;56268.13;;;-146.77;77.07
55410;BME280;41279;43.546;16.426;2022-10-16T13:53:43;56526.63;;;-146.77;79.63
55410;BME280;41279;43.546;16.426;2022-10-16T13:56:14;57256.19;;;-146.77;85.85
55410;BME280;41279;43.546;16.426;2022-10-16T13:58:41;58068.09;;;-146.77;89.19
55410;BME280;41279;43.546;16.426;2022-10-16T14:01:28;57282.25;;;-146.77;81.78
55410;BME280;41279;43.546;16.426;2022-10-16T14:04:01;57053.75;;;-146.77;82.15
55410;BME280;41279;43.546;16.426;2022-10-16T14:06:28;57474.69;;;-146.77;84.31
55410;BME280;41279;43.546;16.426;2022-10-16T14:09:08;57454.66;;;-146.77;83.22
55410;BME280;41279;43.546;16.426;2022-10-16T14:11:42;56815.22;;;-146.77;78.79
55410;BME280;41279;43.546;16.426;2022-10-16T14:14:11;56941.50;;;-146.77;84.51
55410;BME280;41279;43.546;16.426;2022-10-16T14:16:40;56412.41;;;-146.77;82.13
55410;BME280;41279;43.546;16.426;2022-10-16T14:19:24;56380.34;;;-146.77;82.23
55410;BME280;41279;43.546;16.426;2022-10-16T14:21:51;56242.06;;;-146.77;77.11
55410;BME280;41279;43.546;16.426;2022-10-16T14:24:27;56252.06;;;-146.77;80.63